Terminal Aerodrome Forecast
Issued by NWS Hastings, NE

Home | Current Version | Previous Version | Text Only | Print | Product List | Glossary On
Versions: 1 2 3 4 5 6 7 8 9 10 11 12 13 14 15 16 17 18 19 20 21 22 23 24
000
FTUS43 KGID 022320
TAFGRI
TAF
KGRI 022320Z 0300/0324 16010KT P6SM FEW200
     FM030300 15008KT P6SM FEW200 WS008/19035KT
     FM031000 18012KT P6SM FEW250
     FM031800 16014G21KT P6SM FEW250=

USA.gov is the U.S. government's official web portal to all federal, state and local government web resources and services.